sensor_id;sensor_type;location;lat;lon;timestamp;P1;durP1;ratioP1;P2;durP2;ratioP2
39264;SDS011;42646;51.910;7.724;2023-02-15T00:00:37;12.02;;;8.15;;
39264;SDS011;42646;51.910;7.724;2023-02-15T00:03:04;13.80;;;8.25;;
39264;SDS011;42646;51.910;7.724;2023-02-15T00:05:32;11.45;;;7.60;;
39264;SDS011;42646;51.910;7.724;2023-02-15T00:08:00;12.30;;;7.70;;
39264;SDS011;42646;51.910;7.724;2023-02-15T00:10:28;13.70;;;8.75;;
39264;SDS011;42646;51.910;7.724;2023-02-15T00:12:55;14.15;;;8.48;;
39264;SDS011;42646;51.910;7.724;2023-02-15T00:15:48;12.63;;;8.50;;
39264;SDS011;42646;51.910;7.724;2023-02-15T00:18:16;12.82;;;8.50;;
39264;SDS011;42646;51.910;7.724;2023-02-15T00:20:44;14.05;;;9.38;;
39264;SDS011;42646;51.910;7.724;2023-02-15T00:23:11;15.88;;;9.68;;
39264;SDS011;42646;51.910;7.724;2023-02-15T00:25:39;15.02;;;9.80;;
39264;SDS011;42646;51.910;7.724;2023-02-15T00:28:07;15.55;;;10.60;;
39264;SDS011;42646;51.910;7.724;2023-02-15T00:30:35;19.05;;;10.60;;
39264;SDS011;42646;51.910;7.724;2023-02-15T00:33:04;18.70;;;11.35;;
39264;SDS011;42646;51.910;7.724;2023-02-15T00:35:32;16.77;;;11.02;;
39264;SDS011;42646;51.910;7.724;2023-02-15T00:38:00;18.23;;;12.15;;
39264;SDS011;42646;51.910;7.724;2023-02-15T00:40:30;24.10;;;12.05;;
39264;SDS011;42646;51.910;7.724;2023-02-15T00:42:58;18.15;;;11.38;;
39264;SDS011;42646;51.910;7.724;2023-02-15T00:45:26;18.27;;;10.95;;
39264;SDS011;42646;51.910;7.724;2023-02-15T00:47:54;18.90;;;11.20;;
39264;SDS011;42646;51.910;7.724;2023-02-15T00:50:24;19.00;;;10.93;;
39264;SDS011;42646;51.910;7.724;2023-02-15T00:52:52;16.08;;;10.48;;
39264;SDS011;42646;51.910;7.724;2023-02-15T00:55:21;15.30;;;9.60;;
39264;SDS011;42646;51.910;7.724;2023-02-15T00:57:49;17.08;;;10.60;;
39264;SDS011;42646;51.910;7.724;2023-02-15T01:00:17;17.10;;;11.20;;
39264;SDS011;42646;51.910;7.724;2023-02-15T01:02:44;20.05;;;11.27;;
39264;SDS011;42646;51.910;7.724;2023-02-15T01:05:13;18.73;;;12.63;;
39264;SDS011;42646;51.910;7.724;2023-02-15T01:07:43;17.88;;;11.75;;
39264;SDS011;42646;51.910;7.724;2023-02-15T01:10:12;16.27;;;11.00;;
39264;SDS011;42646;51.910;7.724;2023-02-15T01:12:40;14.68;;;9.70;;
39264;SDS011;42646;51.910;7.724;2023-02-15T01:15:09;12.63;;;8.75;;
39264;SDS011;42646;51.910;7.724;2023-02-15T01:17:38;15.90;;;9.55;;
39264;SDS011;42646;51.910;7.724;2023-02-15T01:20:06;14.20;;;9.00;;
39264;SDS011;42646;51.910;7.724;2023-02-15T01:22:36;17.02;;;9.43;;
39264;SDS011;42646;51.910;7.724;2023-02-15T01:25:08;15.10;;;9.63;;
39264;SDS011;42646;51.910;7.724;2023-02-15T01:27:36;17.55;;;10.30;;
39264;SDS011;42646;51.910;7.724;2023-02-15T01:30:05;16.83;;;10.68;;
39264;SDS011;42646;51.910;7.724;2023-02-15T01:32:36;17.38;;;10.60;;
39264;SDS011;42646;51.910;7.724;2023-02-15T01:35:04;17.75;;;11.43;;
39264;SDS011;42646;51.910;7.724;2023-02-15T01:37:35;16.15;;;10.38;;
39264;SDS011;42646;51.910;7.724;2023-02-15T01:40:03;17.67;;;11.20;;
39264;SDS011;42646;51.910;7.724;2023-02-15T01:42:37;17.73;;;11.88;;
39264;SDS011;42646;51.910;7.724;2023-02-15T01:45:05;18.33;;;11.90;;
39264;SDS011;42646;51.910;7.724;2023-02-15T01:47:47;18.23;;;12.05;;
39264;SDS011;42646;51.910;7.724;2023-02-15T01:50:21;20.20;;;12.35;;
39264;SDS011;42646;51.910;7.724;2023-02-15T01:52:55;19.58;;;12.13;;
39264;SDS011;42646;51.910;7.724;2023-02-15T01:55:27;19.35;;;12.23;;
39264;SDS011;42646;51.910;7.724;2023-02-15T01:58:00;19.15;;;11.88;;
39264;SDS011;42646;51.910;7.724;2023-02-15T02:00:28;19.23;;;12.27;;
39264;SDS011;42646;51.910;7.724;2023-02-15T02:02:56;22.65;;;13.77;;
39264;SDS011;42646;51.910;7.724;2023-02-15T02:05:26;20.42;;;12.93;;
39264;SDS011;42646;51.910;7.724;2023-02-15T02:07:56;20.27;;;12.40;;
39264;SDS011;42646;51.910;7.724;2023-02-15T02:10:25;19.80;;;12.37;;
39264;SDS011;42646;51.910;7.724;2023-02-15T02:12:56;19.48;;;12.50;;
39264;SDS011;42646;51.910;7.724;2023-02-15T02:15:29;21.30;;;13.43;;
39264;SDS011;42646;51.910;7.724;2023-02-15T02:18:09;20.05;;;12.82;;
39264;SDS011;42646;51.910;7.724;2023-02-15T02:20:57;21.30;;;12.80;;
39264;SDS011;42646;51.910;7.724;2023-02-15T02:23:44;20.13;;;12.35;;
39264;SDS011;42646;51.910;7.724;2023-02-15T02:26:33;22.60;;;13.55;;
39264;SDS011;42646;51.910;7.724;2023-02-15T02:29:22;20.58;;;13.13;;
39264;SDS011;42646;51.910;7.724;2023-02-15T02:32:17;23.30;;;12.13;;
39264;SDS011;42646;51.910;7.724;2023-02-15T02:35:06;20.52;;;13.02;;
39264;SDS011;42646;51.910;7.724;2023-02-15T02:37:42;21.92;;;13.05;;
39264;SDS011;42646;51.910;7.724;2023-02-15T02:40:19;20.75;;;12.35;;
39264;SDS011;42646;51.910;7.724;2023-02-15T02:42:58;17.55;;;10.27;;
39264;SDS011;42646;51.910;7.724;2023-02-15T02:45:32;18.10;;;11.10;;
39264;SDS011;42646;51.910;7.724;2023-02-15T02:48:03;17.13;;;11.35;;
39264;SDS011;42646;51.910;7.724;2023-02-15T02:50:38;18.30;;;11.43;;
39264;SDS011;42646;51.910;7.724;2023-02-15T02:53:08;19.83;;;12.25;;
39264;SDS011;42646;51.910;7.724;2023-02-15T02:55:38;17.27;;;11.68;;
39264;SDS011;42646;51.910;7.724;2023-02-15T02:58:14;18.75;;;11.88;;
39264;SDS011;42646;51.910;7.724;2023-02-15T03:00:49;23.95;;;13.48;;
39264;SDS011;42646;51.910;7.724;2023-02-15T03:03:20;19.63;;;11.98;;
39264;SDS011;42646;51.910;7.724;2023-02-15T03:05:56;19.30;;;11.98;;
39264;SDS011;42646;51.910;7.724;2023-02-15T03:08:54;19.73;;;11.88;;
39264;SDS011;42646;51.910;7.724;2023-02-15T03:11:35;19.63;;;11.80;;
39264;SDS011;42646;51.910;7.724;2023-02-15T03:14:03;19.13;;;11.57;;
39264;SDS011;42646;51.910;7.724;2023-02-15T03:16:32;16.50;;;11.00;;
39264;SDS011;42646;51.910;7.724;2023-02-15T03:19:03;19.13;;;11.35;;
39264;SDS011;42646;51.910;7.724;2023-02-15T03:21:38;19.90;;;11.63;;
39264;SDS011;42646;51.910;7.724;2023-02-15T03:24:09;19.50;;;10.50;;
39264;SDS011;42646;51.910;7.724;2023-02-15T03:26:43;20.67;;;12.27;;
39264;SDS011;42646;51.910;7.724;2023-02-15T03:29:14;18.13;;;10.57;;
39264;SDS011;42646;51.910;7.724;2023-02-15T03:31:49;18.45;;;12.00;;
39264;SDS011;42646;51.910;7.724;2023-02-15T03:34:22;19.42;;;12.05;;
39264;SDS011;42646;51.910;7.724;2023-02-15T03:36:55;24.48;;;13.65;;
39264;SDS011;42646;51.910;7.724;2023-02-15T03:39:30;22.75;;;14.23;;
39264;SDS011;42646;51.910;7.724;2023-02-15T03:42:04;22.95;;;13.85;;
39264;SDS011;42646;51.910;7.724;2023-02-15T03:44:39;25.42;;;14.38;;
39264;SDS011;42646;51.910;7.724;2023-02-15T03:47:17;22.35;;;14.80;;
39264;SDS011;42646;51.910;7.724;2023-02-15T03:49:51;27.38;;;14.07;;
39264;SDS011;42646;51.910;7.724;2023-02-15T03:52:24;22.35;;;13.85;;
39264;SDS011;42646;51.910;7.724;2023-02-15T03:54:55;22.00;;;12.55;;
39264;SDS011;42646;51.910;7.724;2023-02-15T04:00:36;22.90;;;13.45;;
39264;SDS011;42646;51.910;7.724;2023-02-15T04:03:30;21.92;;;12.80;;
39264;SDS011;42646;51.910;7.724;2023-02-15T04:06:04;23.25;;;13.23;;
39264;SDS011;42646;51.910;7.724;2023-02-15T04:08:35;22.85;;;13.18;;
39264;SDS011;42646;51.910;7.724;2023-02-15T04:11:20;20.70;;;13.52;;
39264;SDS011;42646;51.910;7.724;2023-02-15T04:13:48;26.83;;;14.82;;
39264;SDS011;42646;51.910;7.724;2023-02-15T04:16:23;22.40;;;13.15;;
39264;SDS011;42646;51.910;7.724;2023-02-15T04:18:51;21.77;;;13.88;;
39264;SDS011;42646;51.910;7.724;2023-02-15T04:21:37;23.55;;;13.35;;
39264;SDS011;42646;51.910;7.724;2023-02-15T04:24:24;21.70;;;12.88;;
39264;SDS011;42646;51.910;7.724;2023-02-15T04:27:12;22.13;;;12.60;;
39264;SDS011;42646;51.910;7.724;2023-02-15T04:29:42;21.58;;;12.95;;
39264;SDS011;42646;51.910;7.724;2023-02-15T04:32:10;19.63;;;12.63;;
39264;SDS011;42646;51.910;7.724;2023-02-15T04:34:38;21.17;;;12.75;;
39264;SDS011;42646;51.910;7.724;2023-02-15T04:37:06;20.50;;;11.70;;
39264;SDS011;42646;51.910;7.724;2023-02-15T04:39:35;19.60;;;11.98;;
39264;SDS011;42646;51.910;7.724;2023-02-15T04:42:03;20.60;;;13.48;;
39264;SDS011;42646;51.910;7.724;2023-02-15T04:44:31;22.48;;;13.15;;
39264;SDS011;42646;51.910;7.724;2023-02-15T04:47:01;21.65;;;13.13;;
39264;SDS011;42646;51.910;7.724;2023-02-15T04:49:29;21.02;;;12.93;;
39264;SDS011;42646;51.910;7.724;2023-02-15T04:51:58;19.95;;;12.55;;
39264;SDS011;42646;51.910;7.724;2023-02-15T04:54:26;21.00;;;13.02;;
39264;SDS011;42646;51.910;7.724;2023-02-15T04:56:57;21.85;;;13.40;;
39264;SDS011;42646;51.910;7.724;2023-02-15T04:59:24;20.88;;;12.88;;
39264;SDS011;42646;51.910;7.724;2023-02-15T05:01:53;22.00;;;13.40;;
39264;SDS011;42646;51.910;7.724;2023-02-15T05:04:21;20.65;;;13.15;;
39264;SDS011;42646;51.910;7.724;2023-02-15T05:06:49;23.80;;;14.85;;
39264;SDS011;42646;51.910;7.724;2023-02-15T05:09:17;22.35;;;13.85;;
39264;SDS011;42646;51.910;7.724;2023-02-15T05:11:46;22.67;;;13.80;;
39264;SDS011;42646;51.910;7.724;2023-02-15T05:14:20;21.85;;;13.57;;
39264;SDS011;42646;51.910;7.724;2023-02-15T05:16:48;24.25;;;14.02;;
39264;SDS011;42646;51.910;7.724;2023-02-15T05:19:16;25.77;;;13.73;;
39264;SDS011;42646;51.910;7.724;2023-02-15T05:21:46;22.33;;;13.55;;
39264;SDS011;42646;51.910;7.724;2023-02-15T05:24:14;22.67;;;13.45;;
39264;SDS011;42646;51.910;7.724;2023-02-15T05:26:59;23.15;;;13.55;;
39264;SDS011;42646;51.910;7.724;2023-02-15T05:29:45;23.23;;;14.05;;
39264;SDS011;42646;51.910;7.724;2023-02-15T05:32:13;25.45;;;14.95;;
39264;SDS011;42646;51.910;7.724;2023-02-15T05:34:41;23.48;;;14.68;;
39264;SDS011;42646;51.910;7.724;2023-02-15T05:37:10;22.00;;;14.57;;
39264;SDS011;42646;51.910;7.724;2023-02-15T05:39:38;22.90;;;13.23;;
39264;SDS011;42646;51.910;7.724;2023-02-15T05:42:09;22.17;;;13.80;;
39264;SDS011;42646;51.910;7.724;2023-02-15T05:44:37;21.88;;;13.35;;
39264;SDS011;42646;51.910;7.724;2023-02-15T05:47:07;22.15;;;12.80;;
39264;SDS011;42646;51.910;7.724;2023-02-15T05:49:34;21.23;;;13.05;;
39264;SDS011;42646;51.910;7.724;2023-02-15T05:52:02;25.98;;;13.52;;
39264;SDS011;42646;51.910;7.724;2023-02-15T05:54:30;23.58;;;14.48;;
39264;SDS011;42646;51.910;7.724;2023-02-15T05:56:59;23.10;;;14.13;;
39264;SDS011;42646;51.910;7.724;2023-02-15T05:59:27;24.90;;;14.63;;
39264;SDS011;42646;51.910;7.724;2023-02-15T06:04:50;21.90;;;13.52;;
39264;SDS011;42646;51.910;7.724;2023-02-15T06:07:19;22.27;;;13.20;;
39264;SDS011;42646;51.910;7.724;2023-02-15T06:09:47;21.90;;;13.77;;
39264;SDS011;42646;51.910;7.724;2023-02-15T06:12:15;21.52;;;13.10;;
39264;SDS011;42646;51.910;7.724;2023-02-15T06:14:44;23.67;;;14.10;;
39264;SDS011;42646;51.910;7.724;2023-02-15T06:17:12;21.83;;;14.05;;
39264;SDS011;42646;51.910;7.724;2023-02-15T06:19:42;25.45;;;14.57;;
39264;SDS011;42646;51.910;7.724;2023-02-15T06:22:09;20.85;;;13.63;;
39264;SDS011;42646;51.910;7.724;2023-02-15T06:24:41;22.58;;;13.65;;
39264;SDS011;42646;51.910;7.724;2023-02-15T06:27:12;22.75;;;13.85;;
39264;SDS011;42646;51.910;7.724;2023-02-15T06:29:40;22.95;;;13.73;;
39264;SDS011;42646;51.910;7.724;2023-02-15T06:32:08;25.23;;;13.70;;
39264;SDS011;42646;51.910;7.724;2023-02-15T06:34:37;23.15;;;13.73;;
39264;SDS011;42646;51.910;7.724;2023-02-15T06:37:06;22.52;;;13.63;;
39264;SDS011;42646;51.910;7.724;2023-02-15T06:39:37;24.02;;;13.75;;
39264;SDS011;42646;51.910;7.724;2023-02-15T06:42:06;24.77;;;14.17;;
39264;SDS011;42646;51.910;7.724;2023-02-15T06:44:35;21.52;;;13.90;;
39264;SDS011;42646;51.910;7.724;2023-02-15T06:47:03;23.30;;;14.40;;
39264;SDS011;42646;51.910;7.724;2023-02-15T06:49:31;21.63;;;13.80;;
39264;SDS011;42646;51.910;7.724;2023-02-15T06:51:58;22.42;;;13.45;;
39264;SDS011;42646;51.910;7.724;2023-02-15T06:54:28;20.27;;;12.57;;
39264;SDS011;42646;51.910;7.724;2023-02-15T06:56:56;20.17;;;12.82;;
39264;SDS011;42646;51.910;7.724;2023-02-15T06:59:24;20.92;;;12.73;;
39264;SDS011;42646;51.910;7.724;2023-02-15T07:01:52;21.73;;;13.57;;
39264;SDS011;42646;51.910;7.724;2023-02-15T07:04:20;20.02;;;13.02;;
39264;SDS011;42646;51.910;7.724;2023-02-15T07:06:48;20.95;;;13.43;;
39264;SDS011;42646;51.910;7.724;2023-02-15T07:09:19;18.92;;;12.57;;
39264;SDS011;42646;51.910;7.724;2023-02-15T07:11:50;19.90;;;12.27;;
39264;SDS011;42646;51.910;7.724;2023-02-15T07:14:37;20.63;;;12.38;;
39264;SDS011;42646;51.910;7.724;2023-02-15T07:17:07;18.05;;;11.82;;
39264;SDS011;42646;51.910;7.724;2023-02-15T07:19:55;20.33;;;12.57;;
39264;SDS011;42646;51.910;7.724;2023-02-15T07:22:23;19.00;;;12.27;;
39264;SDS011;42646;51.910;7.724;2023-02-15T07:24:51;24.25;;;13.57;;
39264;SDS011;42646;51.910;7.724;2023-02-15T07:27:22;20.52;;;12.88;;
39264;SDS011;42646;51.910;7.724;2023-02-15T07:30:16;22.60;;;13.38;;
39264;SDS011;42646;51.910;7.724;2023-02-15T07:32:45;20.30;;;13.18;;
39264;SDS011;42646;51.910;7.724;2023-02-15T07:35:33;21.42;;;13.38;;
39264;SDS011;42646;51.910;7.724;2023-02-15T07:38:01;20.58;;;12.95;;
39264;SDS011;42646;51.910;7.724;2023-02-15T07:40:29;18.70;;;13.25;;
39264;SDS011;42646;51.910;7.724;2023-02-15T07:42:58;22.40;;;13.27;;
39264;SDS011;42646;51.910;7.724;2023-02-15T07:45:26;19.70;;;12.75;;
39264;SDS011;42646;51.910;7.724;2023-02-15T07:48:18;20.02;;;12.55;;
39264;SDS011;42646;51.910;7.724;2023-02-15T07:50:48;19.77;;;12.43;;
39264;SDS011;42646;51.910;7.724;2023-02-15T07:53:16;21.45;;;13.50;;
39264;SDS011;42646;51.910;7.724;2023-02-15T07:55:44;20.60;;;13.20;;
39264;SDS011;42646;51.910;7.724;2023-02-15T07:58:13;18.90;;;12.57;;
39264;SDS011;42646;51.910;7.724;2023-02-15T08:00:42;20.70;;;13.07;;
39264;SDS011;42646;51.910;7.724;2023-02-15T08:03:28;23.05;;;12.80;;
39264;SDS011;42646;51.910;7.724;2023-02-15T08:05:56;24.15;;;14.20;;
39264;SDS011;42646;51.910;7.724;2023-02-15T08:08:26;20.70;;;13.60;;
39264;SDS011;42646;51.910;7.724;2023-02-15T08:10:58;21.42;;;13.43;;
39264;SDS011;42646;51.910;7.724;2023-02-15T08:13:47;21.17;;;13.60;;
39264;SDS011;42646;51.910;7.724;2023-02-15T08:16:24;20.33;;;12.68;;
39264;SDS011;42646;51.910;7.724;2023-02-15T08:18:54;20.00;;;13.52;;
39264;SDS011;42646;51.910;7.724;2023-02-15T08:21:25;21.25;;;12.77;;
39264;SDS011;42646;51.910;7.724;2023-02-15T08:23:54;19.58;;;13.05;;
39264;SDS011;42646;51.910;7.724;2023-02-15T08:26:22;21.25;;;13.82;;
39264;SDS011;42646;51.910;7.724;2023-02-15T08:28:52;22.00;;;14.43;;
39264;SDS011;42646;51.910;7.724;2023-02-15T08:31:22;19.02;;;12.55;;
39264;SDS011;42646;51.910;7.724;2023-02-15T08:33:50;18.02;;;12.82;;
39264;SDS011;42646;51.910;7.724;2023-02-15T08:36:20;19.95;;;13.40;;
39264;SDS011;42646;51.910;7.724;2023-02-15T08:38:50;21.05;;;13.82;;
39264;SDS011;42646;51.910;7.724;2023-02-15T08:41:19;23.48;;;14.27;;
39264;SDS011;42646;51.910;7.724;2023-02-15T08:43:48;21.08;;;13.40;;
39264;SDS011;42646;51.910;7.724;2023-02-15T08:46:20;23.00;;;14.63;;
39264;SDS011;42646;51.910;7.724;2023-02-15T08:48:49;21.35;;;14.48;;
39264;SDS011;42646;51.910;7.724;2023-02-15T08:51:18;23.17;;;14.25;;
39264;SDS011;42646;51.910;7.724;2023-02-15T08:53:48;23.05;;;14.55;;
39264;SDS011;42646;51.910;7.724;2023-02-15T08:56:19;22.02;;;14.52;;
39264;SDS011;42646;51.910;7.724;2023-02-15T08:58:48;21.65;;;14.43;;
39264;SDS011;42646;51.910;7.724;2023-02-15T09:01:17;23.15;;;15.45;;
39264;SDS011;42646;51.910;7.724;2023-02-15T09:03:49;24.05;;;15.77;;
39264;SDS011;42646;51.910;7.724;2023-02-15T09:06:19;23.08;;;14.73;;
39264;SDS011;42646;51.910;7.724;2023-02-15T09:08:48;23.00;;;14.75;;
39264;SDS011;42646;51.910;7.724;2023-02-15T09:11:17;23.33;;;15.55;;
39264;SDS011;42646;51.910;7.724;2023-02-15T09:13:52;25.27;;;15.90;;
39264;SDS011;42646;51.910;7.724;2023-02-15T09:16:26;25.60;;;16.48;;
39264;SDS011;42646;51.910;7.724;2023-02-15T09:18:56;23.75;;;15.90;;
39264;SDS011;42646;51.910;7.724;2023-02-15T09:21:27;24.30;;;16.17;;
39264;SDS011;42646;51.910;7.724;2023-02-15T09:23:58;26.48;;;17.63;;
39264;SDS011;42646;51.910;7.724;2023-02-15T09:26:27;30.42;;;18.55;;
39264;SDS011;42646;51.910;7.724;2023-02-15T09:28:58;30.23;;;18.15;;
39264;SDS011;42646;51.910;7.724;2023-02-15T09:31:29;28.73;;;17.60;;
39264;SDS011;42646;51.910;7.724;2023-02-15T09:33:59;31.88;;;19.00;;
39264;SDS011;42646;51.910;7.724;2023-02-15T09:36:28;26.60;;;17.42;;
39264;SDS011;42646;51.910;7.724;2023-02-15T09:39:00;26.67;;;17.17;;
39264;SDS011;42646;51.910;7.724;2023-02-15T09:44:42;27.50;;;17.75;;
39264;SDS011;42646;51.910;7.724;2023-02-15T09:47:31;28.95;;;18.05;;
39264;SDS011;42646;51.910;7.724;2023-02-15T09:50:16;31.40;;;18.67;;
39264;SDS011;42646;51.910;7.724;2023-02-15T09:52:57;28.25;;;18.73;;
39264;SDS011;42646;51.910;7.724;2023-02-15T09:55:42;28.23;;;17.77;;
39264;SDS011;42646;51.910;7.724;2023-02-15T09:58:20;29.77;;;17.95;;
39264;SDS011;42646;51.910;7.724;2023-02-15T10:01:00;27.60;;;17.77;;
39264;SDS011;42646;51.910;7.724;2023-02-15T10:03:45;29.42;;;18.50;;
39264;SDS011;42646;51.910;7.724;2023-02-15T10:06:29;28.35;;;18.30;;
39264;SDS011;42646;51.910;7.724;2023-02-15T10:09:14;27.58;;;17.48;;
39264;SDS011;42646;51.910;7.724;2023-02-15T10:11:57;29.50;;;18.23;;
39264;SDS011;42646;51.910;7.724;2023-02-15T10:14:42;27.95;;;17.42;;
39264;SDS011;42646;51.910;7.724;2023-02-15T10:17:26;29.15;;;18.60;;
39264;SDS011;42646;51.910;7.724;2023-02-15T10:20:09;26.98;;;17.42;;
39264;SDS011;42646;51.910;7.724;2023-02-15T10:22:50;30.60;;;18.38;;
39264;SDS011;42646;51.910;7.724;2023-02-15T10:25:38;26.27;;;16.23;;
39264;SDS011;42646;51.910;7.724;2023-02-15T10:28:11;27.95;;;17.13;;
39264;SDS011;42646;51.910;7.724;2023-02-15T10:30:46;28.75;;;17.90;;
39264;SDS011;42646;51.910;7.724;2023-02-15T10:33:26;27.83;;;17.23;;
39264;SDS011;42646;51.910;7.724;2023-02-15T10:36:08;29.73;;;18.38;;
39264;SDS011;42646;51.910;7.724;2023-02-15T10:51:00;28.95;;;17.83;;
39264;SDS011;42646;51.910;7.724;2023-02-15T10:56:28;30.35;;;17.80;;
39264;SDS011;42646;51.910;7.724;2023-02-15T10:59:10;27.83;;;17.63;;
39264;SDS011;42646;51.910;7.724;2023-02-15T11:01:53;30.48;;;18.20;;
39264;SDS011;42646;51.910;7.724;2023-02-15T11:04:35;28.67;;;17.65;;
39264;SDS011;42646;51.910;7.724;2023-02-15T11:07:14;26.85;;;17.05;;
39264;SDS011;42646;51.910;7.724;2023-02-15T11:09:48;25.90;;;16.98;;
39264;SDS011;42646;51.910;7.724;2023-02-15T11:16:32;28.40;;;18.20;;
39264;SDS011;42646;51.910;7.724;2023-02-15T11:19:06;29.27;;;17.92;;
39264;SDS011;42646;51.910;7.724;2023-02-15T11:21:40;30.23;;;19.23;;
39264;SDS011;42646;51.910;7.724;2023-02-15T11:24:12;31.02;;;17.70;;
39264;SDS011;42646;51.910;7.724;2023-02-15T11:26:49;29.88;;;17.80;;
39264;SDS011;42646;51.910;7.724;2023-02-15T11:29:25;30.48;;;18.58;;
39264;SDS011;42646;51.910;7.724;2023-02-15T11:32:01;27.63;;;17.83;;
39264;SDS011;42646;51.910;7.724;2023-02-15T11:37:01;29.10;;;17.48;;
39264;SDS011;42646;51.910;7.724;2023-02-15T11:39:34;27.55;;;17.85;;
39264;SDS011;42646;51.910;7.724;2023-02-15T11:42:06;27.83;;;18.55;;
39264;SDS011;42646;51.910;7.724;2023-02-15T11:44:41;29.90;;;19.20;;
39264;SDS011;42646;51.910;7.724;2023-02-15T11:47:14;28.25;;;17.60;;
39264;SDS011;42646;51.910;7.724;2023-02-15T11:49:42;30.20;;;18.08;;
39264;SDS011;42646;51.910;7.724;2023-02-15T11:52:14;29.63;;;18.02;;
39264;SDS011;42646;51.910;7.724;2023-02-15T11:54:44;28.08;;;17.67;;
39264;SDS011;42646;51.910;7.724;2023-02-15T11:57:16;29.95;;;18.70;;
39264;SDS011;42646;51.910;7.724;2023-02-15T11:59:49;28.90;;;17.58;;
39264;SDS011;42646;51.910;7.724;2023-02-15T12:02:22;30.73;;;19.25;;
39264;SDS011;42646;51.910;7.724;2023-02-15T12:04:54;28.90;;;18.05;;
39264;SDS011;42646;51.910;7.724;2023-02-15T12:07:26;31.67;;;19.15;;
39264;SDS011;42646;51.910;7.724;2023-02-15T12:10:00;29.15;;;17.67;;
39264;SDS011;42646;51.910;7.724;2023-02-15T12:12:35;28.80;;;17.52;;
39264;SDS011;42646;51.910;7.724;2023-02-15T12:15:03;29.33;;;17.88;;
39264;SDS011;42646;51.910;7.724;2023-02-15T12:17:38;29.08;;;18.02;;
39264;SDS011;42646;51.910;7.724;2023-02-15T12:22:54;30.30;;;18.05;;
39264;SDS011;42646;51.910;7.724;2023-02-15T12:25:29;30.20;;;18.83;;
39264;SDS011;42646;51.910;7.724;2023-02-15T12:28:05;27.52;;;17.13;;
39264;SDS011;42646;51.910;7.724;2023-02-15T12:31:19;27.05;;;17.23;;
39264;SDS011;42646;51.910;7.724;2023-02-15T12:33:50;29.85;;;17.45;;
39264;SDS011;42646;51.910;7.724;2023-02-15T12:36:25;28.17;;;16.05;;
39264;SDS011;42646;51.910;7.724;2023-02-15T12:39:15;25.90;;;16.45;;
39264;SDS011;42646;51.910;7.724;2023-02-15T12:41:56;28.13;;;17.77;;
39264;SDS011;42646;51.910;7.724;2023-02-15T12:44:28;27.73;;;17.25;;
39264;SDS011;42646;51.910;7.724;2023-02-15T12:46:57;30.13;;;18.15;;
39264;SDS011;42646;51.910;7.724;2023-02-15T12:49:30;26.95;;;16.50;;
39264;SDS011;42646;51.910;7.724;2023-02-15T12:51:59;27.65;;;16.83;;
39264;SDS011;42646;51.910;7.724;2023-02-15T12:57:36;29.67;;;17.38;;
39264;SDS011;42646;51.910;7.724;2023-02-15T13:00:12;25.63;;;16.65;;
39264;SDS011;42646;51.910;7.724;2023-02-15T13:02:54;28.40;;;16.25;;
39264;SDS011;42646;51.910;7.724;2023-02-15T13:05:25;27.75;;;17.77;;
39264;SDS011;42646;51.910;7.724;2023-02-15T13:08:00;24.92;;;16.35;;
39264;SDS011;42646;51.910;7.724;2023-02-15T13:13:02;28.85;;;17.73;;
39264;SDS011;42646;51.910;7.724;2023-02-15T13:16:06;26.63;;;16.63;;
39264;SDS011;42646;51.910;7.724;2023-02-15T13:18:44;25.75;;;16.83;;
39264;SDS011;42646;51.910;7.724;2023-02-15T13:21:20;27.23;;;17.45;;
39264;SDS011;42646;51.910;7.724;2023-02-15T13:23:56;27.52;;;17.13;;
39264;SDS011;42646;51.910;7.724;2023-02-15T13:26:29;26.00;;;15.88;;
39264;SDS011;42646;51.910;7.724;2023-02-15T13:29:00;25.00;;;16.33;;
39264;SDS011;42646;51.910;7.724;2023-02-15T13:31:36;26.15;;;16.55;;
39264;SDS011;42646;51.910;7.724;2023-02-15T13:34:07;29.70;;;16.90;;
39264;SDS011;42646;51.910;7.724;2023-02-15T13:36:41;27.27;;;16.50;;
39264;SDS011;42646;51.910;7.724;2023-02-15T13:39:19;27.00;;;16.52;;
39264;SDS011;42646;51.910;7.724;2023-02-15T13:41:53;25.75;;;15.75;;
39264;SDS011;42646;51.910;7.724;2023-02-15T13:44:41;26.88;;;15.82;;
39264;SDS011;42646;51.910;7.724;2023-02-15T13:47:32;26.63;;;17.17;;
39264;SDS011;42646;51.910;7.724;2023-02-15T13:50:19;25.83;;;16.23;;
39264;SDS011;42646;51.910;7.724;2023-02-15T13:53:02;27.98;;;16.20;;
39264;SDS011;42646;51.910;7.724;2023-02-15T13:55:47;25.35;;;15.43;;
39264;SDS011;42646;51.910;7.724;2023-02-15T14:01:34;26.77;;;16.42;;
39264;SDS011;42646;51.910;7.724;2023-02-15T14:04:22;25.70;;;15.77;;
39264;SDS011;42646;51.910;7.724;2023-02-15T14:07:24;27.77;;;16.90;;
39264;SDS011;42646;51.910;7.724;2023-02-15T14:10:02;24.60;;;15.25;;
39264;SDS011;42646;51.910;7.724;2023-02-15T14:12:47;24.25;;;15.05;;
39264;SDS011;42646;51.910;7.724;2023-02-15T14:15:32;25.92;;;15.48;;
39264;SDS011;42646;51.910;7.724;2023-02-15T14:18:09;24.48;;;15.55;;
39264;SDS011;42646;51.910;7.724;2023-02-15T14:20:50;24.02;;;14.85;;
39264;SDS011;42646;51.910;7.724;2023-02-15T14:23:33;25.40;;;16.00;;
39264;SDS011;42646;51.910;7.724;2023-02-15T14:26:10;24.80;;;15.20;;
39264;SDS011;42646;51.910;7.724;2023-02-15T14:28:48;25.52;;;15.75;;
39264;SDS011;42646;51.910;7.724;2023-02-15T14:31:28;24.30;;;14.82;;
39264;SDS011;42646;51.910;7.724;2023-02-15T14:34:01;24.95;;;15.45;;
39264;SDS011;42646;51.910;7.724;2023-02-15T14:36:31;24.25;;;15.40;;
39264;SDS011;42646;51.910;7.724;2023-02-15T14:39:02;22.75;;;14.88;;
39264;SDS011;42646;51.910;7.724;2023-02-15T14:41:57;23.75;;;15.10;;
39264;SDS011;42646;51.910;7.724;2023-02-15T14:44:30;23.25;;;14.50;;
39264;SDS011;42646;51.910;7.724;2023-02-15T14:47:04;24.25;;;14.65;;
39264;SDS011;42646;51.910;7.724;2023-02-15T14:49:39;25.83;;;14.75;;
39264;SDS011;42646;51.910;7.724;2023-02-15T14:52:12;22.48;;;14.80;;
39264;SDS011;42646;51.910;7.724;2023-02-15T14:54:56;28.10;;;16.10;;
39264;SDS011;42646;51.910;7.724;2023-02-15T14:57:34;24.67;;;14.93;;
39264;SDS011;42646;51.910;7.724;2023-02-15T15:03:00;25.42;;;14.50;;
39264;SDS011;42646;51.910;7.724;2023-02-15T15:05:31;22.58;;;14.13;;
39264;SDS011;42646;51.910;7.724;2023-02-15T15:08:04;24.88;;;15.35;;
39264;SDS011;42646;51.910;7.724;2023-02-15T15:10:38;26.27;;;15.32;;
39264;SDS011;42646;51.910;7.724;2023-02-15T15:16:25;23.73;;;14.13;;
39264;SDS011;42646;51.910;7.724;2023-02-15T15:18:58;23.05;;;13.85;;
39264;SDS011;42646;51.910;7.724;2023-02-15T15:33:25;25.00;;;15.30;;
39264;SDS011;42646;51.910;7.724;2023-02-15T15:39:20;23.10;;;14.75;;
39264;SDS011;42646;51.910;7.724;2023-02-15T15:42:09;21.23;;;13.82;;
39264;SDS011;42646;51.910;7.724;2023-02-15T15:44:54;23.95;;;15.05;;
39264;SDS011;42646;51.910;7.724;2023-02-15T15:47:43;22.75;;;13.82;;
39264;SDS011;42646;51.910;7.724;2023-02-15T15:50:32;23.98;;;13.70;;
39264;SDS011;42646;51.910;7.724;2023-02-15T15:53:01;23.13;;;14.43;;
39264;SDS011;42646;51.910;7.724;2023-02-15T15:55:31;21.70;;;13.35;;
39264;SDS011;42646;51.910;7.724;2023-02-15T15:58:03;20.57;;;13.40;;
39264;SDS011;42646;51.910;7.724;2023-02-15T16:00:36;22.23;;;13.52;;
39264;SDS011;42646;51.910;7.724;2023-02-15T16:03:13;24.35;;;14.65;;